createdAt,value
2024-05-09T00:02:34.717Z,4.00
2024-05-09T00:07:39.908Z,4.27
2024-05-09T00:12:44.774Z,3.40
2024-05-09T00:17:52.654Z,3.57
2024-05-09T00:22:57.731Z,3.60
2024-05-09T00:28:02.641Z,3.77
2024-05-09T00:33:11.440Z,3.90
2024-05-09T00:38:16.917Z,4.20
2024-05-09T00:43:22.230Z,3.40
2024-05-09T00:48:30.550Z,4.10
2024-05-09T00:53:36.907Z,3.90
2024-05-09T00:58:42.653Z,3.70
2024-05-09T01:03:51.403Z,4.07
2024-05-09T01:08:56.540Z,4.00
2024-05-09T01:14:01.476Z,4.10
2024-05-09T01:19:16.927Z,3.93
2024-05-09T01:24:24.565Z,4.07
2024-05-09T01:29:29.534Z,3.97
2024-05-09T01:34:34.600Z,4.17
2024-05-09T01:39:42.400Z,3.73
2024-05-09T01:44:47.481Z,4.00
2024-05-09T01:49:52.681Z,3.60
2024-05-09T01:55:02.803Z,4.13
2024-05-09T02:00:15.582Z,3.80
2024-05-09T02:05:20.990Z,3.97
2024-05-09T02:10:32.543Z,3.97
2024-05-09T02:15:38.646Z,3.93
2024-05-09T02:20:44.418Z,4.17
2024-05-09T02:25:52.201Z,4.03
2024-05-09T02:30:57.328Z,3.73
2024-05-09T02:36:02.413Z,4.20
2024-05-09T02:41:11.669Z,4.30
2024-05-09T02:46:16.875Z,4.67
2024-05-09T02:51:21.716Z,3.90
2024-05-09T02:56:29.298Z,3.83
2024-05-09T03:01:34.500Z,4.13
2024-05-09T03:06:43.138Z,3.90
2024-05-09T03:11:50.780Z,3.97
2024-05-09T03:16:55.999Z,4.40
2024-05-09T03:22:01.620Z,4.43
2024-05-09T03:27:09.456Z,3.83
2024-05-09T03:32:14.569Z,3.83
2024-05-09T03:37:19.664Z,4.47
2024-05-09T03:42:27.129Z,4.40
2024-05-09T03:47:35.579Z,4.23
2024-05-09T03:52:41.051Z,3.93
2024-05-09T03:57:48.833Z,4.50
2024-05-09T04:02:53.752Z,4.40
2024-05-09T04:07:58.927Z,4.20
2024-05-09T04:13:06.719Z,4.40
2024-05-09T04:18:13.321Z,4.77
2024-05-09T04:23:18.458Z,4.50
2024-05-09T04:28:26.385Z,4.80
2024-05-09T04:33:32.380Z,4.20
2024-05-09T04:38:37.532Z,4.30
2024-05-09T04:43:45.361Z,4.07
2024-05-09T04:48:50.326Z,4.37
2024-05-09T04:53:55.254Z,3.93
2024-05-09T04:59:02.900Z,4.00
2024-05-09T05:04:08.026Z,3.80
2024-05-09T05:09:13.153Z,3.90
2024-05-09T05:14:20.915Z,3.83
2024-05-09T05:19:25.984Z,4.50
2024-05-09T05:24:31.148Z,4.17
2024-05-09T05:29:38.834Z,4.17
2024-05-09T05:34:43.868Z,4.00
2024-05-09T05:39:49.161Z,3.80
2024-05-09T05:44:56.849Z,3.50
2024-05-09T05:50:01.824Z,3.83
2024-05-09T05:55:07.611Z,3.87
2024-05-09T06:00:25.415Z,4.00
2024-05-09T06:05:35.248Z,4.13
2024-05-09T06:10:41.366Z,4.30
2024-05-09T06:15:49.519Z,4.03
2024-05-09T06:20:55.138Z,4.20
2024-05-09T06:26:00.306Z,4.03
2024-05-09T06:31:07.848Z,3.90
2024-05-09T06:36:13.464Z,3.77
2024-05-09T06:41:18.415Z,3.77
2024-05-09T06:46:26.603Z,3.73
2024-05-09T06:51:31.451Z,3.67
2024-05-09T06:56:36.490Z,3.60
2024-05-09T07:01:44.190Z,3.78
2024-05-09T07:06:49.085Z,3.47
2024-05-09T07:11:54.082Z,3.65
2024-05-09T07:17:01.776Z,3.60
2024-05-09T07:22:07.103Z,3.80
2024-05-09T07:27:11.979Z,3.30
2024-05-09T07:32:19.696Z,3.90
2024-05-09T07:37:24.659Z,4.00
2024-05-09T07:42:29.517Z,3.47
2024-05-09T07:48:57.784Z,3.53
2024-05-09T07:53:36.102Z,3.20
2024-05-09T07:58:27.821Z,3.42
2024-05-09T08:03:35.725Z,3.10
2024-05-09T08:08:40.860Z,3.22
2024-05-09T08:13:46.002Z,3.70
2024-05-09T08:18:53.586Z,3.40
2024-05-09T08:23:58.554Z,3.17
2024-05-09T08:29:03.397Z,3.15
2024-05-09T08:34:11.980Z,3.30
2024-05-09T08:39:17.016Z,2.58
2024-05-09T08:44:23.488Z,2.85
2024-05-09T08:49:32.890Z,2.35
2024-05-09T08:54:38.312Z,2.97
2024-05-09T08:59:50.984Z,2.67
2024-05-09T09:05:04.459Z,2.45
2024-05-09T09:10:15.197Z,2.67
2024-05-09T09:15:23.487Z,3.00
2024-05-09T09:20:36.422Z,2.50
2024-05-09T09:25:42.320Z,2.83
2024-05-09T09:30:48.281Z,2.60
2024-05-09T09:35:55.825Z,2.70
2024-05-09T09:41:02.000Z,2.45
2024-05-09T09:46:10.807Z,2.58
2024-05-09T09:51:20.243Z,2.63
2024-05-09T09:56:26.534Z,2.30
2024-05-09T10:01:31.528Z,3.05
2024-05-09T10:06:42.626Z,2.70
2024-05-09T10:11:51.982Z,3.08
2024-05-09T10:17:06.985Z,3.08
2024-05-09T10:22:14.749Z,2.30
2024-05-09T10:27:21.464Z,2.63
2024-05-09T10:32:26.700Z,2.60
2024-05-09T10:37:34.874Z,2.70
2024-05-09T10:42:41.979Z,2.60
2024-05-09T10:47:47.452Z,2.90
2024-05-09T10:52:55.476Z,2.95
2024-05-09T10:58:00.644Z,2.90
2024-05-09T11:03:06.040Z,2.75
2024-05-09T11:08:14.164Z,2.40
2024-05-09T11:13:29.184Z,2.55
2024-05-09T11:18:38.116Z,2.45
2024-05-09T11:23:46.788Z,2.50
2024-05-09T11:28:52.642Z,2.28
2024-05-09T11:33:57.707Z,2.35
2024-05-09T11:39:05.583Z,1.95
2024-05-09T11:44:10.782Z,2.20
2024-05-09T11:49:15.736Z,1.90
2024-05-09T11:54:23.279Z,2.10
2024-05-09T11:59:28.164Z,2.05
2024-05-09T12:04:33.267Z,1.90
2024-05-09T12:09:40.877Z,1.88
2024-05-09T12:14:45.823Z,2.20
2024-05-09T12:19:52.686Z,2.17
2024-05-09T12:25:00.253Z,2.28
2024-05-09T12:30:07.252Z,2.00
2024-05-09T12:35:16.266Z,1.85
2024-05-09T12:40:34.006Z,1.90
2024-05-09T12:45:42.266Z,1.83
2024-05-09T12:50:47.199Z,1.58
2024-05-09T12:55:59.921Z,1.70
2024-05-09T13:01:07.710Z,1.70
2024-05-09T13:06:12.985Z,1.92
2024-05-09T13:11:20.531Z,2.10
2024-05-09T13:16:25.637Z,1.98
2024-05-09T13:21:30.638Z,1.88
2024-05-09T13:26:38.182Z,2.20
2024-05-09T13:31:43.060Z,2.00
2024-05-09T13:36:47.943Z,1.73
2024-05-09T13:41:55.459Z,1.83
2024-05-09T13:47:00.847Z,1.70
2024-05-09T13:52:05.830Z,1.90
2024-05-09T13:57:13.368Z,1.67
2024-05-09T14:02:18.622Z,1.90
2024-05-09T14:07:24.233Z,1.75
2024-05-09T14:12:31.846Z,1.60
2024-05-09T14:17:36.880Z,1.60
2024-05-09T14:22:42.258Z,1.90
2024-05-09T14:27:49.848Z,1.90
2024-05-09T14:32:54.844Z,3.58
2024-05-09T14:37:59.961Z,2.28
2024-05-09T14:43:07.938Z,1.67
2024-05-09T14:48:14.139Z,2.00
2024-05-09T14:53:19.293Z,1.88
2024-05-09T14:58:27.350Z,1.80
2024-05-09T15:03:32.428Z,1.80
2024-05-09T15:08:37.632Z,1.90
2024-05-09T15:13:45.111Z,2.00
2024-05-09T15:18:50.386Z,2.00
2024-05-09T15:23:55.768Z,1.80
2024-05-09T15:29:03.282Z,2.60
2024-05-09T15:34:08.379Z,2.08
2024-05-09T15:39:13.478Z,2.03
2024-05-09T15:44:21.273Z,2.00
2024-05-09T15:49:26.333Z,1.80
2024-05-09T15:54:31.314Z,2.10
2024-05-09T15:59:39.008Z,2.30
2024-05-09T16:04:44.080Z,1.80
2024-05-09T16:09:49.577Z,1.80
2024-05-09T16:14:57.117Z,1.60
2024-05-09T16:20:03.888Z,1.77
2024-05-09T16:25:12.221Z,1.60
2024-05-09T16:30:27.880Z,1.83
2024-05-09T16:35:39.297Z,2.67
2024-05-09T16:40:44.390Z,2.45
2024-05-09T16:45:52.019Z,2.30
2024-05-09T16:50:56.908Z,1.80
2024-05-09T16:56:02.141Z,1.60
2024-05-09T17:01:13.841Z,1.90
2024-05-09T17:06:19.014Z,1.70
2024-05-09T17:11:23.941Z,1.90
2024-05-09T17:16:31.625Z,1.83
2024-05-09T17:21:38.305Z,1.80
2024-05-09T17:26:43.545Z,1.80
2024-05-09T17:31:51.373Z,2.08
2024-05-09T17:36:56.781Z,2.40
2024-05-09T17:42:01.890Z,2.00
2024-05-09T17:47:09.455Z,2.20
2024-05-09T17:52:14.501Z,2.00
2024-05-09T17:57:19.564Z,2.13
2024-05-09T18:02:27.227Z,2.23
2024-05-09T18:07:32.461Z,2.60
2024-05-09T18:12:37.474Z,2.20
2024-05-09T18:17:45.327Z,2.10
2024-05-09T18:22:50.456Z,2.47
2024-05-09T18:27:55.663Z,2.20
2024-05-09T18:33:03.597Z,2.30
2024-05-09T18:38:08.687Z,2.40
2024-05-09T18:43:13.639Z,3.00
2024-05-09T18:48:21.993Z,2.80
2024-05-09T18:53:27.390Z,3.43
2024-05-09T18:58:32.574Z,3.23
2024-05-09T19:03:40.826Z,4.37
2024-05-09T19:08:46.159Z,4.13
2024-05-09T19:13:51.048Z,4.93
2024-05-09T19:18:59.228Z,6.63
2024-05-09T19:24:04.183Z,3.47
2024-05-09T19:29:09.063Z,3.50
2024-05-09T19:34:17.000Z,3.30
2024-05-09T19:39:21.952Z,3.13
2024-05-09T19:44:26.821Z,4.30
2024-05-09T19:49:34.499Z,3.53
2024-05-09T19:54:39.437Z,3.40
2024-05-09T19:59:44.485Z,5.63
2024-05-09T20:04:53.715Z,7.23
2024-05-09T20:09:58.750Z,11.00
2024-05-09T20:15:03.844Z,9.87
2024-05-09T20:20:20.294Z,4.40
2024-05-09T20:25:33.148Z,4.77
2024-05-09T20:30:38.449Z,4.60
2024-05-09T20:35:46.286Z,4.90
2024-05-09T20:40:51.297Z,5.57
2024-05-09T20:45:56.503Z,3.30
2024-05-09T20:51:04.079Z,3.73
2024-05-09T20:56:10.021Z,3.00
2024-05-09T21:01:15.038Z,3.40
2024-05-09T21:06:22.758Z,3.10
2024-05-09T21:11:27.925Z,2.70
2024-05-09T21:16:34.276Z,2.53
2024-05-09T21:21:44.498Z,2.80
2024-05-09T21:26:49.452Z,2.77
2024-05-09T21:31:54.536Z,3.33
2024-05-09T21:37:02.032Z,3.27
2024-05-09T21:42:07.527Z,3.00
2024-05-09T21:47:12.558Z,3.13
2024-05-09T21:52:20.211Z,2.87
2024-05-09T21:57:25.391Z,3.00
2024-05-09T22:02:30.664Z,2.63
2024-05-09T22:07:38.313Z,2.83
2024-05-09T22:12:43.400Z,3.10
2024-05-09T22:17:48.594Z,2.90
2024-05-09T22:22:56.874Z,3.03
2024-05-09T22:28:02.294Z,2.63
2024-05-09T22:33:09.689Z,2.83
2024-05-09T22:38:18.712Z,2.93
2024-05-09T22:43:25.214Z,3.23
2024-05-09T22:48:30.429Z,3.10
2024-05-09T22:53:38.031Z,3.00
2024-05-09T22:58:42.979Z,3.07
2024-05-09T23:03:48.054Z,2.90
2024-05-09T23:08:55.639Z,2.87
2024-05-09T23:14:00.808Z,3.67
2024-05-09T23:19:05.955Z,3.30
2024-05-09T23:24:13.534Z,3.30
2024-05-09T23:29:18.423Z,3.40
2024-05-09T23:34:23.983Z,3.50
2024-05-09T23:39:31.514Z,3.70
2024-05-09T23:44:36.501Z,3.60
2024-05-09T23:49:41.435Z,3.10
2024-05-09T23:54:48.965Z,3.50
2024-05-09T23:59:54.142Z,3.10
